sensor_id;sensor_type;location;lat;lon;timestamp;P1;durP1;ratioP1;P2;durP2;ratioP2
26311;SDS011;14019;56.964;24.016;2023-05-19T00:01:14;4.90;;;1.35;;
26311;SDS011;14019;56.964;24.016;2023-05-19T00:04:02;4.32;;;1.60;;
26311;SDS011;14019;56.964;24.016;2023-05-19T00:06:49;3.28;;;1.40;;
26311;SDS011;14019;56.964;24.016;2023-05-19T00:09:36;3.53;;;1.33;;
26311;SDS011;14019;56.964;24.016;2023-05-19T00:12:23;5.05;;;1.48;;
26311;SDS011;14019;56.964;24.016;2023-05-19T00:15:10;2.80;;;1.35;;
26311;SDS011;14019;56.964;24.016;2023-05-19T00:17:56;3.58;;;1.50;;
26311;SDS011;14019;56.964;24.016;2023-05-19T00:20:43;3.50;;;1.20;;
26311;SDS011;14019;56.964;24.016;2023-05-19T00:23:29;2.53;;;1.23;;
26311;SDS011;14019;56.964;24.016;2023-05-19T00:26:15;4.53;;;1.20;;
26311;SDS011;14019;56.964;24.016;2023-05-19T00:29:12;3.00;;;1.40;;
26311;SDS011;14019;56.964;24.016;2023-05-19T00:32:03;4.03;;;1.50;;
26311;SDS011;14019;56.964;24.016;2023-05-19T00:34:50;2.72;;;1.30;;
26311;SDS011;14019;56.964;24.016;2023-05-19T00:37:36;2.30;;;1.20;;
26311;SDS011;14019;56.964;24.016;2023-05-19T00:40:23;6.00;;;1.40;;
26311;SDS011;14019;56.964;24.016;2023-05-19T00:43:10;5.70;;;1.30;;
26311;SDS011;14019;56.964;24.016;2023-05-19T00:45:57;4.90;;;1.40;;
26311;SDS011;14019;56.964;24.016;2023-05-19T00:48:43;4.93;;;1.50;;
26311;SDS011;14019;56.964;24.016;2023-05-19T00:51:30;2.58;;;1.30;;
26311;SDS011;14019;56.964;24.016;2023-05-19T00:54:17;5.13;;;1.42;;
26311;SDS011;14019;56.964;24.016;2023-05-19T00:57:03;6.32;;;1.70;;
26311;SDS011;14019;56.964;24.016;2023-05-19T00:59:49;5.20;;;1.58;;
26311;SDS011;14019;56.964;24.016;2023-05-19T01:02:35;2.90;;;1.55;;
26311;SDS011;14019;56.964;24.016;2023-05-19T01:05:25;4.22;;;1.70;;
26311;SDS011;14019;56.964;24.016;2023-05-19T01:08:12;4.40;;;1.60;;
26311;SDS011;14019;56.964;24.016;2023-05-19T01:10:58;3.72;;;1.60;;
26311;SDS011;14019;56.964;24.016;2023-05-19T01:13:45;4.68;;;1.83;;
26311;SDS011;14019;56.964;24.016;2023-05-19T01:31:08;4.90;;;1.48;;
26311;SDS011;14019;56.964;24.016;2023-05-19T01:33:55;5.63;;;1.80;;
26311;SDS011;14019;56.964;24.016;2023-05-19T01:36:43;7.68;;;1.60;;
26311;SDS011;14019;56.964;24.016;2023-05-19T01:39:30;4.10;;;1.85;;
26311;SDS011;14019;56.964;24.016;2023-05-19T01:42:36;4.93;;;1.50;;
26311;SDS011;14019;56.964;24.016;2023-05-19T01:45:24;3.38;;;1.70;;
26311;SDS011;14019;56.964;24.016;2023-05-19T01:48:12;4.63;;;2.38;;
26311;SDS011;14019;56.964;24.016;2023-05-19T01:50:58;4.88;;;2.20;;
26311;SDS011;14019;56.964;24.016;2023-05-19T01:53:45;6.20;;;2.20;;
26311;SDS011;14019;56.964;24.016;2023-05-19T01:56:45;5.70;;;2.45;;
26311;SDS011;14019;56.964;24.016;2023-05-19T01:59:47;5.45;;;2.10;;
26311;SDS011;14019;56.964;24.016;2023-05-19T02:09:21;6.05;;;2.30;;
26311;SDS011;14019;56.964;24.016;2023-05-19T02:11:40;7.15;;;3.03;;
26311;SDS011;14019;56.964;24.016;2023-05-19T02:17:45;9.35;;;2.97;;
26311;SDS011;14019;56.964;24.016;2023-05-19T02:20:37;8.40;;;2.92;;
26311;SDS011;14019;56.964;24.016;2023-05-19T02:23:24;8.77;;;2.85;;
26311;SDS011;14019;56.964;24.016;2023-05-19T02:26:10;8.13;;;2.63;;
26311;SDS011;14019;56.964;24.016;2023-05-19T02:28:56;6.47;;;2.70;;
26311;SDS011;14019;56.964;24.016;2023-05-19T02:31:43;6.93;;;3.10;;
26311;SDS011;14019;56.964;24.016;2023-05-19T02:34:29;7.68;;;2.85;;
26311;SDS011;14019;56.964;24.016;2023-05-19T02:37:16;5.63;;;2.97;;
26311;SDS011;14019;56.964;24.016;2023-05-19T02:40:02;7.13;;;3.22;;
26311;SDS011;14019;56.964;24.016;2023-05-19T02:42:48;7.45;;;3.00;;
26311;SDS011;14019;56.964;24.016;2023-05-19T02:45:34;10.98;;;3.22;;
26311;SDS011;14019;56.964;24.016;2023-05-19T02:48:21;10.32;;;3.45;;
26311;SDS011;14019;56.964;24.016;2023-05-19T02:51:07;7.30;;;3.45;;
26311;SDS011;14019;56.964;24.016;2023-05-19T02:53:53;11.15;;;3.28;;
26311;SDS011;14019;56.964;24.016;2023-05-19T02:56:39;6.68;;;2.90;;
26311;SDS011;14019;56.964;24.016;2023-05-19T02:59:25;8.52;;;3.40;;
26311;SDS011;14019;56.964;24.016;2023-05-19T03:02:12;5.15;;;2.90;;
26311;SDS011;14019;56.964;24.016;2023-05-19T03:04:58;8.85;;;3.20;;
26311;SDS011;14019;56.964;24.016;2023-05-19T03:07:45;6.90;;;3.15;;
26311;SDS011;14019;56.964;24.016;2023-05-19T03:10:32;7.75;;;3.45;;
26311;SDS011;14019;56.964;24.016;2023-05-19T03:13:18;6.30;;;3.17;;
26311;SDS011;14019;56.964;24.016;2023-05-19T03:16:05;10.70;;;3.53;;
26311;SDS011;14019;56.964;24.016;2023-05-19T03:18:52;10.02;;;3.08;;
26311;SDS011;14019;56.964;24.016;2023-05-19T03:21:40;9.20;;;3.38;;
26311;SDS011;14019;56.964;24.016;2023-05-19T03:24:27;5.97;;;2.80;;
26311;SDS011;14019;56.964;24.016;2023-05-19T03:27:13;5.43;;;2.10;;
26311;SDS011;14019;56.964;24.016;2023-05-19T03:30:01;7.45;;;3.05;;
26311;SDS011;14019;56.964;24.016;2023-05-19T03:32:55;5.35;;;2.40;;
26311;SDS011;14019;56.964;24.016;2023-05-19T03:35:41;6.22;;;2.25;;
26311;SDS011;14019;56.964;24.016;2023-05-19T03:38:29;7.63;;;2.17;;
26311;SDS011;14019;56.964;24.016;2023-05-19T03:41:15;5.32;;;1.92;;
26311;SDS011;14019;56.964;24.016;2023-05-19T03:44:02;4.45;;;2.00;;
26311;SDS011;14019;56.964;24.016;2023-05-19T03:46:48;7.40;;;1.95;;
26311;SDS011;14019;56.964;24.016;2023-05-19T03:49:43;4.97;;;1.70;;
26311;SDS011;14019;56.964;24.016;2023-05-19T03:52:48;4.70;;;2.00;;
26311;SDS011;14019;56.964;24.016;2023-05-19T03:55:46;7.63;;;1.45;;
26311;SDS011;14019;56.964;24.016;2023-05-19T03:58:33;3.20;;;1.40;;
26311;SDS011;14019;56.964;24.016;2023-05-19T04:01:25;5.38;;;1.30;;
26311;SDS011;14019;56.964;24.016;2023-05-19T04:04:11;5.45;;;1.60;;
26311;SDS011;14019;56.964;24.016;2023-05-19T04:06:59;5.57;;;1.40;;
26311;SDS011;14019;56.964;24.016;2023-05-19T04:09:45;7.88;;;1.60;;
26311;SDS011;14019;56.964;24.016;2023-05-19T04:15:46;7.00;;;1.52;;
26311;SDS011;14019;56.964;24.016;2023-05-19T04:18:36;6.88;;;1.88;;
26311;SDS011;14019;56.964;24.016;2023-05-19T04:21:22;6.43;;;2.10;;
26311;SDS011;14019;56.964;24.016;2023-05-19T04:24:08;4.93;;;1.90;;
26311;SDS011;14019;56.964;24.016;2023-05-19T04:26:54;6.43;;;1.60;;
26311;SDS011;14019;56.964;24.016;2023-05-19T04:29:41;9.70;;;1.50;;
26311;SDS011;14019;56.964;24.016;2023-05-19T04:32:27;4.15;;;1.42;;
26311;SDS011;14019;56.964;24.016;2023-05-19T04:35:15;2.85;;;1.30;;
26311;SDS011;14019;56.964;24.016;2023-05-19T04:38:03;3.03;;;1.27;;
26311;SDS011;14019;56.964;24.016;2023-05-19T04:40:51;11.18;;;1.30;;
26311;SDS011;14019;56.964;24.016;2023-05-19T04:43:38;2.95;;;1.30;;
26311;SDS011;14019;56.964;24.016;2023-05-19T04:46:26;3.65;;;1.38;;
26311;SDS011;14019;56.964;24.016;2023-05-19T04:49:14;5.57;;;1.50;;
26311;SDS011;14019;56.964;24.016;2023-05-19T04:52:06;1.88;;;1.30;;
26311;SDS011;14019;56.964;24.016;2023-05-19T04:54:56;14.10;;;2.50;;
26311;SDS011;14019;56.964;24.016;2023-05-19T04:57:44;11.90;;;2.97;;
26311;SDS011;14019;56.964;24.016;2023-05-19T05:00:31;6.03;;;2.10;;
26311;SDS011;14019;56.964;24.016;2023-05-19T05:03:23;6.38;;;2.65;;
26311;SDS011;14019;56.964;24.016;2023-05-19T05:06:10;14.38;;;4.78;;
26311;SDS011;14019;56.964;24.016;2023-05-19T05:08:59;27.70;;;15.25;;
26311;SDS011;14019;56.964;24.016;2023-05-19T05:11:49;27.23;;;13.43;;
26311;SDS011;14019;56.964;24.016;2023-05-19T05:14:37;36.33;;;23.52;;
26311;SDS011;14019;56.964;24.016;2023-05-19T05:17:26;28.58;;;20.48;;
26311;SDS011;14019;56.964;24.016;2023-05-19T05:20:14;35.75;;;22.80;;
26311;SDS011;14019;56.964;24.016;2023-05-19T05:23:00;34.50;;;23.73;;
26311;SDS011;14019;56.964;24.016;2023-05-19T05:25:48;34.85;;;23.98;;
26311;SDS011;14019;56.964;24.016;2023-05-19T05:28:35;37.83;;;24.88;;
26311;SDS011;14019;56.964;24.016;2023-05-19T05:31:23;22.58;;;13.98;;
26311;SDS011;14019;56.964;24.016;2023-05-19T05:34:10;14.50;;;8.63;;
26311;SDS011;14019;56.964;24.016;2023-05-19T05:36:56;6.40;;;2.78;;
26311;SDS011;14019;56.964;24.016;2023-05-19T05:39:43;5.85;;;2.72;;
26311;SDS011;14019;56.964;24.016;2023-05-19T05:42:30;11.23;;;6.35;;
26311;SDS011;14019;56.964;24.016;2023-05-19T05:45:17;14.18;;;7.47;;
26311;SDS011;14019;56.964;24.016;2023-05-19T05:48:04;14.35;;;8.23;;
26311;SDS011;14019;56.964;24.016;2023-05-19T05:50:51;14.98;;;8.50;;
26311;SDS011;14019;56.964;24.016;2023-05-19T05:53:42;12.13;;;7.10;;
26311;SDS011;14019;56.964;24.016;2023-05-19T05:56:32;10.77;;;7.05;;
26311;SDS011;14019;56.964;24.016;2023-05-19T05:59:22;16.80;;;9.57;;
26311;SDS011;14019;56.964;24.016;2023-05-19T06:02:09;16.40;;;10.55;;
26311;SDS011;14019;56.964;24.016;2023-05-19T06:04:57;17.20;;;9.00;;
26311;SDS011;14019;56.964;24.016;2023-05-19T06:07:43;16.85;;;9.18;;
26311;SDS011;14019;56.964;24.016;2023-05-19T06:10:35;16.42;;;10.30;;
26311;SDS011;14019;56.964;24.016;2023-05-19T06:13:25;14.90;;;9.48;;
26311;SDS011;14019;56.964;24.016;2023-05-19T06:16:12;24.85;;;10.93;;
26311;SDS011;14019;56.964;24.016;2023-05-19T06:19:02;16.02;;;10.65;;
26311;SDS011;14019;56.964;24.016;2023-05-19T06:21:48;20.38;;;11.82;;
26311;SDS011;14019;56.964;24.016;2023-05-19T06:24:35;12.38;;;7.53;;
26311;SDS011;14019;56.964;24.016;2023-05-19T06:27:26;14.55;;;9.77;;
26311;SDS011;14019;56.964;24.016;2023-05-19T06:30:12;23.20;;;12.48;;
26311;SDS011;14019;56.964;24.016;2023-05-19T06:33:09;23.33;;;15.10;;
26311;SDS011;14019;56.964;24.016;2023-05-19T06:35:56;18.10;;;11.30;;
26311;SDS011;14019;56.964;24.016;2023-05-19T06:38:43;22.23;;;12.27;;
26311;SDS011;14019;56.964;24.016;2023-05-19T06:41:29;21.15;;;11.85;;
26311;SDS011;14019;56.964;24.016;2023-05-19T06:44:16;12.75;;;5.20;;
26311;SDS011;14019;56.964;24.016;2023-05-19T06:47:06;10.50;;;5.18;;
26311;SDS011;14019;56.964;24.016;2023-05-19T06:49:53;9.25;;;5.03;;
26311;SDS011;14019;56.964;24.016;2023-05-19T06:52:44;9.27;;;4.00;;
26311;SDS011;14019;56.964;24.016;2023-05-19T06:55:32;7.63;;;3.45;;
26311;SDS011;14019;56.964;24.016;2023-05-19T06:58:30;7.20;;;3.17;;
26311;SDS011;14019;56.964;24.016;2023-05-19T07:01:20;7.90;;;2.95;;
26311;SDS011;14019;56.964;24.016;2023-05-19T07:04:11;7.35;;;4.50;;
26311;SDS011;14019;56.964;24.016;2023-05-19T07:06:58;14.98;;;7.13;;
26311;SDS011;14019;56.964;24.016;2023-05-19T07:09:46;12.32;;;7.07;;
26311;SDS011;14019;56.964;24.016;2023-05-19T07:12:33;8.80;;;6.78;;
26311;SDS011;14019;56.964;24.016;2023-05-19T07:15:20;9.30;;;6.03;;
26311;SDS011;14019;56.964;24.016;2023-05-19T07:18:07;16.17;;;5.55;;
26311;SDS011;14019;56.964;24.016;2023-05-19T07:24:07;11.00;;;5.10;;
26311;SDS011;14019;56.964;24.016;2023-05-19T07:26:53;14.00;;;6.70;;
26311;SDS011;14019;56.964;24.016;2023-05-19T07:29:40;11.13;;;6.70;;
26311;SDS011;14019;56.964;24.016;2023-05-19T07:32:27;8.20;;;6.20;;
26311;SDS011;14019;56.964;24.016;2023-05-19T07:35:14;9.80;;;5.18;;
26311;SDS011;14019;56.964;24.016;2023-05-19T07:38:01;8.38;;;5.07;;
26311;SDS011;14019;56.964;24.016;2023-05-19T07:40:48;14.50;;;5.40;;
26311;SDS011;14019;56.964;24.016;2023-05-19T07:43:34;12.48;;;6.72;;
26311;SDS011;14019;56.964;24.016;2023-05-19T07:46:22;14.88;;;6.75;;
26311;SDS011;14019;56.964;24.016;2023-05-19T07:49:08;9.88;;;5.40;;
26311;SDS011;14019;56.964;24.016;2023-05-19T07:51:55;10.35;;;5.05;;
26311;SDS011;14019;56.964;24.016;2023-05-19T07:54:42;8.05;;;3.83;;
26311;SDS011;14019;56.964;24.016;2023-05-19T07:57:30;11.57;;;3.55;;
26311;SDS011;14019;56.964;24.016;2023-05-19T08:00:17;9.63;;;4.00;;
26311;SDS011;14019;56.964;24.016;2023-05-19T08:03:04;6.97;;;3.90;;
26311;SDS011;14019;56.964;24.016;2023-05-19T08:05:51;6.90;;;4.03;;
26311;SDS011;14019;56.964;24.016;2023-05-19T08:08:37;10.77;;;4.90;;
26311;SDS011;14019;56.964;24.016;2023-05-19T08:11:23;4.60;;;3.33;;
26311;SDS011;14019;56.964;24.016;2023-05-19T08:14:10;6.05;;;3.30;;
26311;SDS011;14019;56.964;24.016;2023-05-19T08:16:57;5.25;;;3.50;;
26311;SDS011;14019;56.964;24.016;2023-05-19T08:19:44;4.10;;;1.85;;
26311;SDS011;14019;56.964;24.016;2023-05-19T08:22:31;4.47;;;2.30;;
26311;SDS011;14019;56.964;24.016;2023-05-19T08:25:18;5.25;;;2.20;;
26311;SDS011;14019;56.964;24.016;2023-05-19T08:28:04;8.45;;;4.07;;
26311;SDS011;14019;56.964;24.016;2023-05-19T08:30:51;8.15;;;4.05;;
26311;SDS011;14019;56.964;24.016;2023-05-19T08:33:38;5.25;;;2.42;;
26311;SDS011;14019;56.964;24.016;2023-05-19T08:36:24;6.20;;;2.35;;
26311;SDS011;14019;56.964;24.016;2023-05-19T08:39:11;6.05;;;2.10;;
26311;SDS011;14019;56.964;24.016;2023-05-19T08:42:00;2.85;;;1.60;;
26311;SDS011;14019;56.964;24.016;2023-05-19T08:44:47;5.07;;;2.33;;
26311;SDS011;14019;56.964;24.016;2023-05-19T08:47:35;5.70;;;1.73;;
26311;SDS011;14019;56.964;24.016;2023-05-19T08:50:23;4.18;;;1.75;;
26311;SDS011;14019;56.964;24.016;2023-05-19T08:53:17;6.20;;;1.40;;
26311;SDS011;14019;56.964;24.016;2023-05-19T08:56:24;4.65;;;1.30;;
26311;SDS011;14019;56.964;24.016;2023-05-19T08:59:12;3.38;;;1.27;;
26311;SDS011;14019;56.964;24.016;2023-05-19T09:02:02;3.10;;;1.30;;
26311;SDS011;14019;56.964;24.016;2023-05-19T09:04:49;3.50;;;1.20;;
26311;SDS011;14019;56.964;24.016;2023-05-19T09:07:36;2.78;;;1.00;;
26311;SDS011;14019;56.964;24.016;2023-05-19T09:10:22;4.65;;;1.50;;
26311;SDS011;14019;56.964;24.016;2023-05-19T09:13:11;2.75;;;1.30;;
26311;SDS011;14019;56.964;24.016;2023-05-19T09:15:57;3.05;;;1.38;;
26311;SDS011;14019;56.964;24.016;2023-05-19T09:18:54;3.15;;;1.30;;
26311;SDS011;14019;56.964;24.016;2023-05-19T09:21:41;6.55;;;1.10;;
26311;SDS011;14019;56.964;24.016;2023-05-19T09:24:28;2.33;;;1.25;;
26311;SDS011;14019;56.964;24.016;2023-05-19T09:27:20;2.28;;;1.25;;
26311;SDS011;14019;56.964;24.016;2023-05-19T09:30:09;2.60;;;1.00;;
26311;SDS011;14019;56.964;24.016;2023-05-19T09:32:56;2.75;;;1.33;;
26311;SDS011;14019;56.964;24.016;2023-05-19T09:35:45;3.47;;;1.00;;
26311;SDS011;14019;56.964;24.016;2023-05-19T09:38:33;2.63;;;1.00;;
26311;SDS011;14019;56.964;24.016;2023-05-19T09:41:19;3.22;;;1.17;;
26311;SDS011;14019;56.964;24.016;2023-05-19T09:44:11;1.92;;;1.00;;
26311;SDS011;14019;56.964;24.016;2023-05-19T09:46:58;3.08;;;1.00;;
26311;SDS011;14019;56.964;24.016;2023-05-19T09:49:47;2.95;;;1.10;;
26311;SDS011;14019;56.964;24.016;2023-05-19T09:52:34;1.45;;;0.80;;
26311;SDS011;14019;56.964;24.016;2023-05-19T09:55:24;4.05;;;1.30;;
26311;SDS011;14019;56.964;24.016;2023-05-19T09:58:14;4.63;;;1.00;;
26311;SDS011;14019;56.964;24.016;2023-05-19T10:01:04;1.40;;;0.82;;
26311;SDS011;14019;56.964;24.016;2023-05-19T10:03:51;5.72;;;0.98;;
26311;SDS011;14019;56.964;24.016;2023-05-19T10:06:38;3.38;;;1.00;;
26311;SDS011;14019;56.964;24.016;2023-05-19T10:09:26;2.10;;;0.90;;
26311;SDS011;14019;56.964;24.016;2023-05-19T10:12:12;2.83;;;1.15;;
26311;SDS011;14019;56.964;24.016;2023-05-19T10:14:59;1.10;;;0.90;;
26311;SDS011;14019;56.964;24.016;2023-05-19T10:17:46;2.92;;;1.00;;
26311;SDS011;14019;56.964;24.016;2023-05-19T10:20:33;1.98;;;1.02;;
26311;SDS011;14019;56.964;24.016;2023-05-19T10:23:21;2.50;;;1.08;;
26311;SDS011;14019;56.964;24.016;2023-05-19T10:26:08;2.33;;;0.93;;
26311;SDS011;14019;56.964;24.016;2023-05-19T10:28:55;3.05;;;1.00;;
26311;SDS011;14019;56.964;24.016;2023-05-19T10:31:42;3.75;;;1.00;;
26311;SDS011;14019;56.964;24.016;2023-05-19T10:34:35;2.88;;;0.98;;
26311;SDS011;14019;56.964;24.016;2023-05-19T10:40:27;1.23;;;0.80;;
26311;SDS011;14019;56.964;24.016;2023-05-19T10:43:24;3.33;;;0.93;;
26311;SDS011;14019;56.964;24.016;2023-05-19T10:46:15;3.40;;;1.00;;
26311;SDS011;14019;56.964;24.016;2023-05-19T10:49:01;4.05;;;1.13;;
26311;SDS011;14019;56.964;24.016;2023-05-19T10:51:48;2.67;;;1.00;;
26311;SDS011;14019;56.964;24.016;2023-05-19T10:54:42;3.67;;;1.10;;
26311;SDS011;14019;56.964;24.016;2023-05-19T10:57:32;3.90;;;1.00;;
26311;SDS011;14019;56.964;24.016;2023-05-19T11:00:26;2.97;;;1.15;;
26311;SDS011;14019;56.964;24.016;2023-05-19T11:06:33;2.03;;;1.15;;
26311;SDS011;14019;56.964;24.016;2023-05-19T11:09:12;2.20;;;1.10;;
26311;SDS011;14019;56.964;24.016;2023-05-19T11:12:01;6.65;;;1.25;;
26311;SDS011;14019;56.964;24.016;2023-05-19T11:14:51;5.88;;;1.20;;
26311;SDS011;14019;56.964;24.016;2023-05-19T11:17:41;2.00;;;1.17;;
26311;SDS011;14019;56.964;24.016;2023-05-19T11:20:37;3.88;;;1.20;;
26311;SDS011;14019;56.964;24.016;2023-05-19T11:23:24;2.63;;;1.13;;
26311;SDS011;14019;56.964;24.016;2023-05-19T11:26:10;7.28;;;1.15;;
26311;SDS011;14019;56.964;24.016;2023-05-19T11:28:57;3.00;;;1.20;;
26311;SDS011;14019;56.964;24.016;2023-05-19T11:31:43;3.10;;;0.93;;
26311;SDS011;14019;56.964;24.016;2023-05-19T11:34:29;3.75;;;1.00;;
26311;SDS011;14019;56.964;24.016;2023-05-19T11:37:16;1.75;;;1.10;;
26311;SDS011;14019;56.964;24.016;2023-05-19T11:40:03;3.83;;;1.42;;
26311;SDS011;14019;56.964;24.016;2023-05-19T11:42:51;5.18;;;1.13;;
26311;SDS011;14019;56.964;24.016;2023-05-19T11:45:37;2.90;;;1.17;;
26311;SDS011;14019;56.964;24.016;2023-05-19T11:48:24;4.50;;;1.23;;
26311;SDS011;14019;56.964;24.016;2023-05-19T11:51:11;3.75;;;1.20;;
26311;SDS011;14019;56.964;24.016;2023-05-19T11:53:57;7.38;;;1.15;;
26311;SDS011;14019;56.964;24.016;2023-05-19T11:56:43;3.00;;;1.13;;
26311;SDS011;14019;56.964;24.016;2023-05-19T11:59:34;2.50;;;1.20;;
26311;SDS011;14019;56.964;24.016;2023-05-19T12:02:21;2.63;;;1.10;;
26311;SDS011;14019;56.964;24.016;2023-05-19T12:05:19;4.00;;;1.00;;
26311;SDS011;14019;56.964;24.016;2023-05-19T12:08:06;3.75;;;1.20;;
26311;SDS011;14019;56.964;24.016;2023-05-19T12:10:53;2.25;;;1.10;;
26311;SDS011;14019;56.964;24.016;2023-05-19T12:13:40;2.63;;;1.00;;
26311;SDS011;14019;56.964;24.016;2023-05-19T12:16:33;3.00;;;1.25;;
26311;SDS011;14019;56.964;24.016;2023-05-19T12:19:23;7.82;;;1.10;;
26311;SDS011;14019;56.964;24.016;2023-05-19T12:22:10;2.33;;;1.10;;
26311;SDS011;14019;56.964;24.016;2023-05-19T12:24:56;1.92;;;1.05;;
26311;SDS011;14019;56.964;24.016;2023-05-19T12:27:43;3.50;;;1.08;;
26311;SDS011;14019;56.964;24.016;2023-05-19T12:30:29;3.30;;;1.20;;
26311;SDS011;14019;56.964;24.016;2023-05-19T12:33:18;4.75;;;1.10;;
26311;SDS011;14019;56.964;24.016;2023-05-19T12:36:04;1.85;;;1.02;;
26311;SDS011;14019;56.964;24.016;2023-05-19T12:38:53;3.53;;;1.15;;
26311;SDS011;14019;56.964;24.016;2023-05-19T12:41:43;4.95;;;1.23;;
26311;SDS011;14019;56.964;24.016;2023-05-19T12:44:29;2.00;;;0.90;;
26311;SDS011;14019;56.964;24.016;2023-05-19T12:47:16;3.17;;;1.20;;
26311;SDS011;14019;56.964;24.016;2023-05-19T12:50:04;5.43;;;1.10;;
26311;SDS011;14019;56.964;24.016;2023-05-19T12:52:52;4.32;;;1.30;;
26311;SDS011;14019;56.964;24.016;2023-05-19T12:55:39;4.22;;;1.20;;
26311;SDS011;14019;56.964;24.016;2023-05-19T12:58:31;2.75;;;1.17;;
26311;SDS011;14019;56.964;24.016;2023-05-19T13:01:18;1.77;;;0.82;;
26311;SDS011;14019;56.964;24.016;2023-05-19T13:04:05;3.63;;;1.20;;
26311;SDS011;14019;56.964;24.016;2023-05-19T13:06:52;2.03;;;0.80;;
26311;SDS011;14019;56.964;24.016;2023-05-19T13:09:38;4.25;;;1.20;;
26311;SDS011;14019;56.964;24.016;2023-05-19T13:12:24;3.35;;;0.98;;
26311;SDS011;14019;56.964;24.016;2023-05-19T13:15:11;2.65;;;1.00;;
26311;SDS011;14019;56.964;24.016;2023-05-19T13:17:58;4.55;;;1.13;;
26311;SDS011;14019;56.964;24.016;2023-05-19T13:20:45;4.85;;;1.20;;
26311;SDS011;14019;56.964;24.016;2023-05-19T13:23:33;3.22;;;1.10;;
26311;SDS011;14019;56.964;24.016;2023-05-19T13:26:19;5.07;;;1.00;;
26311;SDS011;14019;56.964;24.016;2023-05-19T13:29:06;4.00;;;1.20;;
26311;SDS011;14019;56.964;24.016;2023-05-19T13:31:53;4.95;;;1.10;;
26311;SDS011;14019;56.964;24.016;2023-05-19T13:34:39;5.13;;;1.10;;
26311;SDS011;14019;56.964;24.016;2023-05-19T13:37:25;3.80;;;1.20;;
26311;SDS011;14019;56.964;24.016;2023-05-19T13:40:11;2.85;;;1.05;;
26311;SDS011;14019;56.964;24.016;2023-05-19T13:42:58;4.07;;;1.15;;
26311;SDS011;14019;56.964;24.016;2023-05-19T13:45:44;3.95;;;1.05;;
26311;SDS011;14019;56.964;24.016;2023-05-19T13:48:30;2.97;;;1.10;;
26311;SDS011;14019;56.964;24.016;2023-05-19T13:51:16;3.60;;;1.02;;
26311;SDS011;14019;56.964;24.016;2023-05-19T13:54:02;1.38;;;0.88;;
26311;SDS011;14019;56.964;24.016;2023-05-19T13:56:49;4.40;;;1.05;;
26311;SDS011;14019;56.964;24.016;2023-05-19T13:59:35;3.90;;;1.10;;
26311;SDS011;14019;56.964;24.016;2023-05-19T14:02:37;3.67;;;0.85;;
26311;SDS011;14019;56.964;24.016;2023-05-19T14:05:24;4.85;;;1.10;;
26311;SDS011;14019;56.964;24.016;2023-05-19T14:08:12;3.25;;;1.05;;
26311;SDS011;14019;56.964;24.016;2023-05-19T14:10:58;3.38;;;1.33;;
26311;SDS011;14019;56.964;24.016;2023-05-19T14:13:47;4.50;;;1.30;;
26311;SDS011;14019;56.964;24.016;2023-05-19T14:16:37;2.60;;;1.10;;
26311;SDS011;14019;56.964;24.016;2023-05-19T14:19:24;5.05;;;1.15;;
26311;SDS011;14019;56.964;24.016;2023-05-19T14:22:15;3.38;;;1.10;;
26311;SDS011;14019;56.964;24.016;2023-05-19T14:25:33;1.50;;;1.00;;
26311;SDS011;14019;56.964;24.016;2023-05-19T14:28:27;2.78;;;0.90;;
26311;SDS011;14019;56.964;24.016;2023-05-19T14:34:25;4.28;;;1.25;;
26311;SDS011;14019;56.964;24.016;2023-05-19T14:37:21;2.35;;;1.20;;
26311;SDS011;14019;56.964;24.016;2023-05-19T14:43:18;2.80;;;1.00;;
26311;SDS011;14019;56.964;24.016;2023-05-19T14:46:06;1.70;;;1.05;;
26311;SDS011;14019;56.964;24.016;2023-05-19T14:49:27;2.72;;;1.27;;
26311;SDS011;14019;56.964;24.016;2023-05-19T14:52:13;2.72;;;1.10;;
26311;SDS011;14019;56.964;24.016;2023-05-19T14:54:59;4.05;;;1.20;;
26311;SDS011;14019;56.964;24.016;2023-05-19T14:57:45;5.25;;;1.10;;
26311;SDS011;14019;56.964;24.016;2023-05-19T15:00:32;4.55;;;1.35;;
26311;SDS011;14019;56.964;24.016;2023-05-19T15:07:00;2.10;;;1.17;;
26311;SDS011;14019;56.964;24.016;2023-05-19T15:09:54;2.63;;;1.40;;
26311;SDS011;14019;56.964;24.016;2023-05-19T15:12:41;2.38;;;1.13;;
26311;SDS011;14019;56.964;24.016;2023-05-19T15:15:27;4.30;;;1.42;;
26311;SDS011;14019;56.964;24.016;2023-05-19T15:18:13;3.03;;;1.10;;
26311;SDS011;14019;56.964;24.016;2023-05-19T15:21:03;1.38;;;0.90;;
26311;SDS011;14019;56.964;24.016;2023-05-19T15:23:49;1.63;;;0.90;;
26311;SDS011;14019;56.964;24.016;2023-05-19T15:26:36;3.40;;;1.10;;
26311;SDS011;14019;56.964;24.016;2023-05-19T15:29:23;2.80;;;1.13;;
26311;SDS011;14019;56.964;24.016;2023-05-19T15:32:09;2.78;;;0.90;;
26311;SDS011;14019;56.964;24.016;2023-05-19T15:34:56;2.10;;;0.98;;
26311;SDS011;14019;56.964;24.016;2023-05-19T15:37:43;4.28;;;1.10;;
26311;SDS011;14019;56.964;24.016;2023-05-19T15:40:29;5.38;;;1.33;;
26311;SDS011;14019;56.964;24.016;2023-05-19T15:43:17;1.73;;;0.80;;
26311;SDS011;14019;56.964;24.016;2023-05-19T15:46:06;2.53;;;0.90;;
26311;SDS011;14019;56.964;24.016;2023-05-19T15:48:52;2.47;;;1.00;;
26311;SDS011;14019;56.964;24.016;2023-05-19T15:51:39;2.83;;;1.10;;
26311;SDS011;14019;56.964;24.016;2023-05-19T15:54:25;4.63;;;0.90;;
26311;SDS011;14019;56.964;24.016;2023-05-19T15:57:27;1.98;;;0.80;;
26311;SDS011;14019;56.964;24.016;2023-05-19T16:00:14;2.17;;;0.70;;
26311;SDS011;14019;56.964;24.016;2023-05-19T16:03:00;4.05;;;0.80;;
26311;SDS011;14019;56.964;24.016;2023-05-19T16:05:47;1.73;;;1.00;;
26311;SDS011;14019;56.964;24.016;2023-05-19T16:08:34;1.50;;;0.90;;
26311;SDS011;14019;56.964;24.016;2023-05-19T16:11:21;3.72;;;1.00;;
26311;SDS011;14019;56.964;24.016;2023-05-19T16:14:07;1.52;;;0.80;;
26311;SDS011;14019;56.964;24.016;2023-05-19T16:16:54;1.38;;;0.70;;
26311;SDS011;14019;56.964;24.016;2023-05-19T16:19:41;1.38;;;0.90;;
26311;SDS011;14019;56.964;24.016;2023-05-19T16:22:27;2.45;;;0.90;;
26311;SDS011;14019;56.964;24.016;2023-05-19T16:25:14;2.55;;;0.70;;
26311;SDS011;14019;56.964;24.016;2023-05-19T16:28:00;1.45;;;1.00;;
26311;SDS011;14019;56.964;24.016;2023-05-19T16:30:46;2.22;;;0.90;;
26311;SDS011;14019;56.964;24.016;2023-05-19T16:33:32;3.50;;;1.00;;
26311;SDS011;14019;56.964;24.016;2023-05-19T16:36:19;2.15;;;0.90;;
26311;SDS011;14019;56.964;24.016;2023-05-19T16:39:07;5.35;;;1.27;;
26311;SDS011;14019;56.964;24.016;2023-05-19T16:41:53;3.00;;;1.00;;
26311;SDS011;14019;56.964;24.016;2023-05-19T16:44:39;2.00;;;1.13;;
26311;SDS011;14019;56.964;24.016;2023-05-19T16:47:27;2.60;;;1.02;;
26311;SDS011;14019;56.964;24.016;2023-05-19T16:50:13;4.22;;;1.10;;
26311;SDS011;14019;56.964;24.016;2023-05-19T16:52:59;3.85;;;1.10;;
26311;SDS011;14019;56.964;24.016;2023-05-19T16:55:45;2.53;;;1.00;;
26311;SDS011;14019;56.964;24.016;2023-05-19T16:58:49;2.45;;;1.20;;
26311;SDS011;14019;56.964;24.016;2023-05-19T17:01:36;4.43;;;1.20;;
26311;SDS011;14019;56.964;24.016;2023-05-19T17:04:23;5.03;;;1.20;;
26311;SDS011;14019;56.964;24.016;2023-05-19T17:07:12;4.90;;;1.20;;
26311;SDS011;14019;56.964;24.016;2023-05-19T17:10:02;5.97;;;1.45;;
26311;SDS011;14019;56.964;24.016;2023-05-19T17:12:48;5.53;;;1.25;;
26311;SDS011;14019;56.964;24.016;2023-05-19T17:15:35;5.38;;;1.33;;
26311;SDS011;14019;56.964;24.016;2023-05-19T17:18:22;2.15;;;1.23;;
26311;SDS011;14019;56.964;24.016;2023-05-19T17:21:09;2.33;;;1.42;;